sensor_id;sensor_type;location;lat;lon;timestamp;temperature;humidity
56542;DHT22;42438;53.174;6.730;2023-01-29T00:01:07;3.40;99.90
56542;DHT22;42438;53.174;6.730;2023-01-29T00:03:38;3.90;99.90
56542;DHT22;42438;53.174;6.730;2023-01-29T00:06:09;3.50;99.90
56542;DHT22;42438;53.174;6.730;2023-01-29T00:08:40;3.40;99.90
56542;DHT22;42438;53.174;6.730;2023-01-29T00:11:10;3.90;99.90
56542;DHT22;42438;53.174;6.730;2023-01-29T00:13:42;3.10;99.90
56542;DHT22;42438;53.174;6.730;2023-01-29T00:16:13;3.40;99.90
56542;DHT22;42438;53.174;6.730;2023-01-29T00:18:43;3.40;99.90
56542;DHT22;42438;53.174;6.730;2023-01-29T00:21:17;3.60;99.90
56542;DHT22;42438;53.174;6.730;2023-01-29T00:23:48;3.50;99.90
56542;DHT22;42438;53.174;6.730;2023-01-29T00:26:19;4.40;99.90
56542;DHT22;42438;53.174;6.730;2023-01-29T00:28:50;3.20;99.90
56542;DHT22;42438;53.174;6.730;2023-01-29T00:31:22;4.50;99.90
56542;DHT22;42438;53.174;6.730;2023-01-29T00:33:53;3.70;99.90
56542;DHT22;42438;53.174;6.730;2023-01-29T00:36:25;3.60;99.90
56542;DHT22;42438;53.174;6.730;2023-01-29T00:38:58;3.70;99.90
56542;DHT22;42438;53.174;6.730;2023-01-29T00:41:32;3.40;99.90
56542;DHT22;42438;53.174;6.730;2023-01-29T00:44:22;3.70;99.90
56542;DHT22;42438;53.174;6.730;2023-01-29T00:47:11;3.60;99.90
56542;DHT22;42438;53.174;6.730;2023-01-29T00:50:05;3.60;99.90
56542;DHT22;42438;53.174;6.730;2023-01-29T00:52:36;3.40;99.90
56542;DHT22;42438;53.174;6.730;2023-01-29T00:55:09;3.60;99.90
56542;DHT22;42438;53.174;6.730;2023-01-29T00:57:40;3.30;99.90
56542;DHT22;42438;53.174;6.730;2023-01-29T01:00:15;3.20;99.90
56542;DHT22;42438;53.174;6.730;2023-01-29T01:02:46;3.30;99.90
56542;DHT22;42438;53.174;6.730;2023-01-29T01:05:35;3.60;99.90
56542;DHT22;42438;53.174;6.730;2023-01-29T01:08:06;3.90;99.90
56542;DHT22;42438;53.174;6.730;2023-01-29T01:11:02;3.50;99.90
56542;DHT22;42438;53.174;6.730;2023-01-29T01:13:33;3.60;99.90
56542;DHT22;42438;53.174;6.730;2023-01-29T01:16:15;3.60;99.90
56542;DHT22;42438;53.174;6.730;2023-01-29T01:18:47;3.70;99.90
56542;DHT22;42438;53.174;6.730;2023-01-29T01:21:18;3.70;99.90
56542;DHT22;42438;53.174;6.730;2023-01-29T01:23:49;3.60;99.90
56542;DHT22;42438;53.174;6.730;2023-01-29T01:26:21;3.50;99.90
56542;DHT22;42438;53.174;6.730;2023-01-29T01:28:52;3.50;99.90
56542;DHT22;42438;53.174;6.730;2023-01-29T01:31:22;3.70;99.90
56542;DHT22;42438;53.174;6.730;2023-01-29T01:33:54;4.40;99.90
56542;DHT22;42438;53.174;6.730;2023-01-29T01:36:25;3.80;99.90
56542;DHT22;42438;53.174;6.730;2023-01-29T01:38:55;3.40;99.90
56542;DHT22;42438;53.174;6.730;2023-01-29T01:41:26;3.60;99.90
56542;DHT22;42438;53.174;6.730;2023-01-29T01:44:01;3.40;99.90
56542;DHT22;42438;53.174;6.730;2023-01-29T01:46:36;3.60;99.90
56542;DHT22;42438;53.174;6.730;2023-01-29T01:49:14;3.80;99.90
56542;DHT22;42438;53.174;6.730;2023-01-29T01:51:48;3.50;99.90
56542;DHT22;42438;53.174;6.730;2023-01-29T01:54:25;4.10;99.90
56542;DHT22;42438;53.174;6.730;2023-01-29T01:57:10;3.90;99.90
56542;DHT22;42438;53.174;6.730;2023-01-29T01:59:48;4.10;99.90
56542;DHT22;42438;53.174;6.730;2023-01-29T02:02:19;3.60;99.90
56542;DHT22;42438;53.174;6.730;2023-01-29T02:05:10;3.90;99.90
56542;DHT22;42438;53.174;6.730;2023-01-29T02:08:00;3.80;99.90
56542;DHT22;42438;53.174;6.730;2023-01-29T02:10:49;3.90;99.90
56542;DHT22;42438;53.174;6.730;2023-01-29T02:13:20;3.90;99.90
56542;DHT22;42438;53.174;6.730;2023-01-29T02:15:51;3.70;99.90
56542;DHT22;42438;53.174;6.730;2023-01-29T02:18:22;4.00;99.90
56542;DHT22;42438;53.174;6.730;2023-01-29T02:21:35;3.60;99.90
56542;DHT22;42438;53.174;6.730;2023-01-29T02:43:47;4.00;99.90
56542;DHT22;42438;53.174;6.730;2023-01-29T02:51:46;3.70;99.90
56542;DHT22;42438;53.174;6.730;2023-01-29T02:54:28;3.90;99.90
56542;DHT22;42438;53.174;6.730;2023-01-29T02:57:15;3.90;99.90
56542;DHT22;42438;53.174;6.730;2023-01-29T03:02:32;3.80;99.90
56542;DHT22;42438;53.174;6.730;2023-01-29T03:05:09;3.90;99.90
56542;DHT22;42438;53.174;6.730;2023-01-29T03:07:52;3.80;99.90
56542;DHT22;42438;53.174;6.730;2023-01-29T03:10:36;3.80;99.90
56542;DHT22;42438;53.174;6.730;2023-01-29T03:13:34;3.70;99.90
56542;DHT22;42438;53.174;6.730;2023-01-29T03:16:25;3.60;99.90
56542;DHT22;42438;53.174;6.730;2023-01-29T03:19:06;3.70;99.90
56542;DHT22;42438;53.174;6.730;2023-01-29T03:21:40;3.70;99.90
56542;DHT22;42438;53.174;6.730;2023-01-29T03:24:38;3.80;99.90
56542;DHT22;42438;53.174;6.730;2023-01-29T03:27:34;4.00;99.90
56542;DHT22;42438;53.174;6.730;2023-01-29T03:30:27;3.70;99.90
56542;DHT22;42438;53.174;6.730;2023-01-29T03:33:20;3.70;99.90
56542;DHT22;42438;53.174;6.730;2023-01-29T03:35:57;3.90;99.90
56542;DHT22;42438;53.174;6.730;2023-01-29T03:38:30;3.60;99.90
56542;DHT22;42438;53.174;6.730;2023-01-29T03:41:09;3.70;99.90
56542;DHT22;42438;53.174;6.730;2023-01-29T03:44:22;3.90;99.90
56542;DHT22;42438;53.174;6.730;2023-01-29T03:47:23;3.80;99.90
56542;DHT22;42438;53.174;6.730;2023-01-29T03:53:30;3.70;99.90
56542;DHT22;42438;53.174;6.730;2023-01-29T03:56:26;3.90;99.90
56542;DHT22;42438;53.174;6.730;2023-01-29T03:59:13;3.70;99.90
56542;DHT22;42438;53.174;6.730;2023-01-29T04:01:58;4.00;99.90
56542;DHT22;42438;53.174;6.730;2023-01-29T04:04:32;4.00;99.90
56542;DHT22;42438;53.174;6.730;2023-01-29T04:07:12;4.00;99.90
56542;DHT22;42438;53.174;6.730;2023-01-29T04:09:47;3.70;99.90
56542;DHT22;42438;53.174;6.730;2023-01-29T04:12:23;3.90;99.90
56542;DHT22;42438;53.174;6.730;2023-01-29T04:14:58;3.90;99.90
56542;DHT22;42438;53.174;6.730;2023-01-29T04:17:35;4.10;99.90
56542;DHT22;42438;53.174;6.730;2023-01-29T04:20:08;3.80;99.90
56542;DHT22;42438;53.174;6.730;2023-01-29T04:22:45;3.50;99.90
56542;DHT22;42438;53.174;6.730;2023-01-29T04:25:25;4.30;99.90
56542;DHT22;42438;53.174;6.730;2023-01-29T04:30:57;3.70;99.90
56542;DHT22;42438;53.174;6.730;2023-01-29T04:39:02;3.80;99.90
56542;DHT22;42438;53.174;6.730;2023-01-29T04:44:41;3.80;99.90
56542;DHT22;42438;53.174;6.730;2023-01-29T04:50:24;3.80;99.90
56542;DHT22;42438;53.174;6.730;2023-01-29T04:55:45;4.40;99.90
56542;DHT22;42438;53.174;6.730;2023-01-29T05:00:52;4.10;99.90
56542;DHT22;42438;53.174;6.730;2023-01-29T05:03:25;3.90;99.90
56542;DHT22;42438;53.174;6.730;2023-01-29T05:05:57;3.90;99.90
56542;DHT22;42438;53.174;6.730;2023-01-29T05:08:31;4.20;99.90
56542;DHT22;42438;53.174;6.730;2023-01-29T05:11:02;3.90;99.90
56542;DHT22;42438;53.174;6.730;2023-01-29T05:13:36;3.80;99.90
56542;DHT22;42438;53.174;6.730;2023-01-29T05:16:24;3.90;99.90
56542;DHT22;42438;53.174;6.730;2023-01-29T05:18:56;3.50;99.90
56542;DHT22;42438;53.174;6.730;2023-01-29T05:21:27;3.90;99.90
56542;DHT22;42438;53.174;6.730;2023-01-29T05:24:13;3.60;99.90
56542;DHT22;42438;53.174;6.730;2023-01-29T05:26:47;3.90;99.90
56542;DHT22;42438;53.174;6.730;2023-01-29T05:29:39;4.10;99.90
56542;DHT22;42438;53.174;6.730;2023-01-29T05:32:12;3.70;99.90
56542;DHT22;42438;53.174;6.730;2023-01-29T05:34:43;3.80;99.90
56542;DHT22;42438;53.174;6.730;2023-01-29T05:37:13;3.90;99.90
56542;DHT22;42438;53.174;6.730;2023-01-29T05:39:44;3.60;99.90
56542;DHT22;42438;53.174;6.730;2023-01-29T05:42:15;3.80;99.90
56542;DHT22;42438;53.174;6.730;2023-01-29T05:44:45;3.70;99.90
56542;DHT22;42438;53.174;6.730;2023-01-29T05:47:19;3.80;99.90
56542;DHT22;42438;53.174;6.730;2023-01-29T05:49:50;3.80;99.90
56542;DHT22;42438;53.174;6.730;2023-01-29T05:52:21;3.70;99.90
56542;DHT22;42438;53.174;6.730;2023-01-29T05:54:51;3.90;99.90
56542;DHT22;42438;53.174;6.730;2023-01-29T05:57:22;3.60;99.90
56542;DHT22;42438;53.174;6.730;2023-01-29T05:59:53;3.80;99.90
56542;DHT22;42438;53.174;6.730;2023-01-29T06:02:24;3.50;99.90
56542;DHT22;42438;53.174;6.730;2023-01-29T06:04:55;3.60;99.90
56542;DHT22;42438;53.174;6.730;2023-01-29T06:07:25;3.80;99.90
56542;DHT22;42438;53.174;6.730;2023-01-29T06:09:56;3.70;99.90
56542;DHT22;42438;53.174;6.730;2023-01-29T06:12:27;3.70;99.90
56542;DHT22;42438;53.174;6.730;2023-01-29T06:14:57;3.70;99.90
56542;DHT22;42438;53.174;6.730;2023-01-29T06:17:29;4.10;99.90
56542;DHT22;42438;53.174;6.730;2023-01-29T06:20:00;3.60;99.90
56542;DHT22;42438;53.174;6.730;2023-01-29T06:22:32;3.30;99.90
56542;DHT22;42438;53.174;6.730;2023-01-29T06:25:03;4.00;99.90
56542;DHT22;42438;53.174;6.730;2023-01-29T06:27:33;3.60;99.90
56542;DHT22;42438;53.174;6.730;2023-01-29T06:30:05;3.70;99.90
56542;DHT22;42438;53.174;6.730;2023-01-29T06:32:36;3.60;99.90
56542;DHT22;42438;53.174;6.730;2023-01-29T06:35:07;4.10;99.90
56542;DHT22;42438;53.174;6.730;2023-01-29T06:37:39;3.70;99.90
56542;DHT22;42438;53.174;6.730;2023-01-29T06:40:10;3.90;99.90
56542;DHT22;42438;53.174;6.730;2023-01-29T06:42:41;3.60;99.90
56542;DHT22;42438;53.174;6.730;2023-01-29T06:45:12;4.20;99.90
56542;DHT22;42438;53.174;6.730;2023-01-29T06:47:42;3.90;99.90
56542;DHT22;42438;53.174;6.730;2023-01-29T06:50:13;3.70;99.90
56542;DHT22;42438;53.174;6.730;2023-01-29T06:52:44;3.70;99.90
56542;DHT22;42438;53.174;6.730;2023-01-29T06:55:14;4.10;99.90
56542;DHT22;42438;53.174;6.730;2023-01-29T06:57:45;4.40;99.90
56542;DHT22;42438;53.174;6.730;2023-01-29T07:00:16;4.00;99.90
56542;DHT22;42438;53.174;6.730;2023-01-29T07:02:50;3.90;99.90
56542;DHT22;42438;53.174;6.730;2023-01-29T07:05:20;3.90;99.90
56542;DHT22;42438;53.174;6.730;2023-01-29T07:07:51;4.00;99.90
56542;DHT22;42438;53.174;6.730;2023-01-29T07:10:22;3.80;99.90
56542;DHT22;42438;53.174;6.730;2023-01-29T07:12:52;4.00;99.90
56542;DHT22;42438;53.174;6.730;2023-01-29T07:15:23;4.30;99.90
56542;DHT22;42438;53.174;6.730;2023-01-29T07:17:58;4.00;99.90
56542;DHT22;42438;53.174;6.730;2023-01-29T07:20:30;3.80;99.90
56542;DHT22;42438;53.174;6.730;2023-01-29T07:23:01;4.00;99.90
56542;DHT22;42438;53.174;6.730;2023-01-29T07:25:33;3.90;99.90
56542;DHT22;42438;53.174;6.730;2023-01-29T07:28:04;4.10;99.90
56542;DHT22;42438;53.174;6.730;2023-01-29T07:30:35;4.30;99.90
56542;DHT22;42438;53.174;6.730;2023-01-29T07:33:07;3.70;99.90
56542;DHT22;42438;53.174;6.730;2023-01-29T07:35:40;3.80;99.90
56542;DHT22;42438;53.174;6.730;2023-01-29T07:38:11;4.10;99.90
56542;DHT22;42438;53.174;6.730;2023-01-29T07:40:42;4.00;99.90
56542;DHT22;42438;53.174;6.730;2023-01-29T07:43:13;3.90;99.90
56542;DHT22;42438;53.174;6.730;2023-01-29T07:45:44;4.20;99.90
56542;DHT22;42438;53.174;6.730;2023-01-29T07:48:14;3.90;99.90
56542;DHT22;42438;53.174;6.730;2023-01-29T07:50:53;3.80;99.90
56542;DHT22;42438;53.174;6.730;2023-01-29T07:53:25;3.70;99.90
56542;DHT22;42438;53.174;6.730;2023-01-29T07:55:57;4.10;99.90
56542;DHT22;42438;53.174;6.730;2023-01-29T07:58:27;4.20;99.90
56542;DHT22;42438;53.174;6.730;2023-01-29T08:00:58;4.10;99.90
56542;DHT22;42438;53.174;6.730;2023-01-29T08:03:29;3.70;99.90
56542;DHT22;42438;53.174;6.730;2023-01-29T08:06:00;3.60;99.90
56542;DHT22;42438;53.174;6.730;2023-01-29T08:08:30;3.70;99.90
56542;DHT22;42438;53.174;6.730;2023-01-29T08:11:02;4.20;99.90
56542;DHT22;42438;53.174;6.730;2023-01-29T08:13:34;3.80;99.90
56542;DHT22;42438;53.174;6.730;2023-01-29T08:16:05;4.30;99.90
56542;DHT22;42438;53.174;6.730;2023-01-29T08:18:37;4.00;99.90
56542;DHT22;42438;53.174;6.730;2023-01-29T08:21:08;4.40;99.90
56542;DHT22;42438;53.174;6.730;2023-01-29T08:23:39;4.10;99.90
56542;DHT22;42438;53.174;6.730;2023-01-29T08:26:10;4.00;99.90
56542;DHT22;42438;53.174;6.730;2023-01-29T08:28:40;4.30;99.90
56542;DHT22;42438;53.174;6.730;2023-01-29T08:31:18;4.40;99.90
56542;DHT22;42438;53.174;6.730;2023-01-29T08:33:54;4.10;99.90
56542;DHT22;42438;53.174;6.730;2023-01-29T08:36:25;4.40;99.90
56542;DHT22;42438;53.174;6.730;2023-01-29T08:38:56;4.50;99.90
56542;DHT22;42438;53.174;6.730;2023-01-29T08:41:27;4.60;99.90
56542;DHT22;42438;53.174;6.730;2023-01-29T08:43:57;4.30;99.90
56542;DHT22;42438;53.174;6.730;2023-01-29T08:46:30;4.20;99.90
56542;DHT22;42438;53.174;6.730;2023-01-29T08:49:00;4.10;99.90
56542;DHT22;42438;53.174;6.730;2023-01-29T08:51:31;4.60;99.90
56542;DHT22;42438;53.174;6.730;2023-01-29T08:54:02;4.10;99.90
56542;DHT22;42438;53.174;6.730;2023-01-29T08:56:33;4.20;99.90
56542;DHT22;42438;53.174;6.730;2023-01-29T08:59:03;4.30;99.90
56542;DHT22;42438;53.174;6.730;2023-01-29T09:01:34;4.10;99.90
56542;DHT22;42438;53.174;6.730;2023-01-29T09:04:04;4.10;99.90
56542;DHT22;42438;53.174;6.730;2023-01-29T09:06:35;4.60;99.90
56542;DHT22;42438;53.174;6.730;2023-01-29T09:09:06;4.20;99.90
56542;DHT22;42438;53.174;6.730;2023-01-29T09:11:37;4.30;99.90
56542;DHT22;42438;53.174;6.730;2023-01-29T09:14:09;4.20;99.90
56542;DHT22;42438;53.174;6.730;2023-01-29T09:16:42;4.60;99.90
56542;DHT22;42438;53.174;6.730;2023-01-29T09:19:13;4.30;99.90
56542;DHT22;42438;53.174;6.730;2023-01-29T09:21:43;4.40;99.90
56542;DHT22;42438;53.174;6.730;2023-01-29T09:24:14;4.40;99.90
56542;DHT22;42438;53.174;6.730;2023-01-29T09:26:45;4.60;99.90
56542;DHT22;42438;53.174;6.730;2023-01-29T09:29:16;4.60;99.90
56542;DHT22;42438;53.174;6.730;2023-01-29T09:31:46;4.40;99.90
56542;DHT22;42438;53.174;6.730;2023-01-29T09:34:17;4.00;99.90
56542;DHT22;42438;53.174;6.730;2023-01-29T09:36:48;4.50;99.90
56542;DHT22;42438;53.174;6.730;2023-01-29T09:39:18;4.40;99.90
56542;DHT22;42438;53.174;6.730;2023-01-29T09:45:03;4.30;99.90
56542;DHT22;42438;53.174;6.730;2023-01-29T09:47:35;4.40;99.90
56542;DHT22;42438;53.174;6.730;2023-01-29T09:50:12;4.40;99.90
56542;DHT22;42438;53.174;6.730;2023-01-29T09:52:56;4.10;99.90
56542;DHT22;42438;53.174;6.730;2023-01-29T09:55:36;4.20;99.90
56542;DHT22;42438;53.174;6.730;2023-01-29T10:06:24;4.40;99.90
56542;DHT22;42438;53.174;6.730;2023-01-29T10:09:07;4.70;99.90
56542;DHT22;42438;53.174;6.730;2023-01-29T10:12:12;4.50;99.90
56542;DHT22;42438;53.174;6.730;2023-01-29T10:15:01;4.90;99.90
56542;DHT22;42438;53.174;6.730;2023-01-29T10:23:31;4.50;99.90
56542;DHT22;42438;53.174;6.730;2023-01-29T10:26:03;4.50;99.90
56542;DHT22;42438;53.174;6.730;2023-01-29T10:28:40;4.80;99.90
56542;DHT22;42438;53.174;6.730;2023-01-29T10:31:38;5.10;99.90
56542;DHT22;42438;53.174;6.730;2023-01-29T10:34:35;4.80;99.90
56542;DHT22;42438;53.174;6.730;2023-01-29T10:37:19;4.60;99.90
56542;DHT22;42438;53.174;6.730;2023-01-29T10:39:59;4.90;99.90
56542;DHT22;42438;53.174;6.730;2023-01-29T10:42:32;5.10;99.90
56542;DHT22;42438;53.174;6.730;2023-01-29T10:45:23;5.00;99.90
56542;DHT22;42438;53.174;6.730;2023-01-29T10:51:25;4.70;99.90
56542;DHT22;42438;53.174;6.730;2023-01-29T11:02:20;4.80;99.90
56542;DHT22;42438;53.174;6.730;2023-01-29T11:04:52;4.70;99.90
56542;DHT22;42438;53.174;6.730;2023-01-29T11:07:22;4.80;99.90
56542;DHT22;42438;53.174;6.730;2023-01-29T11:10:02;4.90;99.90
56542;DHT22;42438;53.174;6.730;2023-01-29T11:12:34;5.00;99.90
56542;DHT22;42438;53.174;6.730;2023-01-29T11:15:29;5.00;99.90
56542;DHT22;42438;53.174;6.730;2023-01-29T11:18:07;4.90;99.90
56542;DHT22;42438;53.174;6.730;2023-01-29T11:20:44;4.90;99.90
56542;DHT22;42438;53.174;6.730;2023-01-29T11:23:30;5.30;99.90
56542;DHT22;42438;53.174;6.730;2023-01-29T11:26:02;5.10;99.90
56542;DHT22;42438;53.174;6.730;2023-01-29T11:33:53;5.20;99.90
56542;DHT22;42438;53.174;6.730;2023-01-29T11:36:36;5.30;99.90
56542;DHT22;42438;53.174;6.730;2023-01-29T11:39:09;4.90;99.90
56542;DHT22;42438;53.174;6.730;2023-01-29T11:41:43;5.30;99.90
56542;DHT22;42438;53.174;6.730;2023-01-29T11:49:51;4.90;99.90
56542;DHT22;42438;53.174;6.730;2023-01-29T11:52:37;5.30;99.90
56542;DHT22;42438;53.174;6.730;2023-01-29T11:55:15;5.20;99.90
56542;DHT22;42438;53.174;6.730;2023-01-29T11:58:03;5.00;99.90
56542;DHT22;42438;53.174;6.730;2023-01-29T12:00:38;5.10;99.90
56542;DHT22;42438;53.174;6.730;2023-01-29T12:06:33;5.10;99.90
56542;DHT22;42438;53.174;6.730;2023-01-29T12:09:01;4.80;99.90
56542;DHT22;42438;53.174;6.730;2023-01-29T12:11:34;5.40;99.90
56542;DHT22;42438;53.174;6.730;2023-01-29T12:14:28;5.00;99.90
56542;DHT22;42438;53.174;6.730;2023-01-29T12:17:23;5.30;99.90
56542;DHT22;42438;53.174;6.730;2023-01-29T12:20:03;5.80;99.90
56542;DHT22;42438;53.174;6.730;2023-01-29T12:22:54;5.40;99.90
56542;DHT22;42438;53.174;6.730;2023-01-29T12:25:48;5.30;99.90
56542;DHT22;42438;53.174;6.730;2023-01-29T12:28:43;4.90;99.90
56542;DHT22;42438;53.174;6.730;2023-01-29T12:34:43;5.30;99.90
56542;DHT22;42438;53.174;6.730;2023-01-29T12:40:13;4.80;99.90
56542;DHT22;42438;53.174;6.730;2023-01-29T12:42:57;5.50;99.90
56542;DHT22;42438;53.174;6.730;2023-01-29T12:45:32;5.10;99.90
56542;DHT22;42438;53.174;6.730;2023-01-29T12:48:08;5.20;99.90
56542;DHT22;42438;53.174;6.730;2023-01-29T12:50:40;5.10;99.90
56542;DHT22;42438;53.174;6.730;2023-01-29T12:53:31;5.20;99.90
56542;DHT22;42438;53.174;6.730;2023-01-29T12:56:23;4.90;99.90
56542;DHT22;42438;53.174;6.730;2023-01-29T12:58:59;4.70;99.90
56542;DHT22;42438;53.174;6.730;2023-01-29T13:02:01;5.20;99.90
56542;DHT22;42438;53.174;6.730;2023-01-29T13:04:41;4.70;99.90
56542;DHT22;42438;53.174;6.730;2023-01-29T13:07:19;5.40;99.90
56542;DHT22;42438;53.174;6.730;2023-01-29T13:09:58;4.70;99.90
56542;DHT22;42438;53.174;6.730;2023-01-29T13:12:32;5.00;99.90
56542;DHT22;42438;53.174;6.730;2023-01-29T13:15:11;5.50;99.90
56542;DHT22;42438;53.174;6.730;2023-01-29T13:20:51;4.70;99.90
56542;DHT22;42438;53.174;6.730;2023-01-29T13:23:31;5.20;99.90
56542;DHT22;42438;53.174;6.730;2023-01-29T13:26:04;4.80;99.90
56542;DHT22;42438;53.174;6.730;2023-01-29T13:28:35;4.60;99.90
56542;DHT22;42438;53.174;6.730;2023-01-29T13:33:42;4.60;99.90
56542;DHT22;42438;53.174;6.730;2023-01-29T13:36:15;4.90;99.90
56542;DHT22;42438;53.174;6.730;2023-01-29T13:39:01;5.10;99.90
56542;DHT22;42438;53.174;6.730;2023-01-29T13:41:38;4.90;99.90
56542;DHT22;42438;53.174;6.730;2023-01-29T13:44:23;5.10;99.90
56542;DHT22;42438;53.174;6.730;2023-01-29T13:47:00;4.80;99.90
56542;DHT22;42438;53.174;6.730;2023-01-29T13:49:40;5.30;99.90
56542;DHT22;42438;53.174;6.730;2023-01-29T13:52:38;4.90;99.90
56542;DHT22;42438;53.174;6.730;2023-01-29T13:57:54;4.80;99.90
56542;DHT22;42438;53.174;6.730;2023-01-29T14:05:43;5.10;99.90
56542;DHT22;42438;53.174;6.730;2023-01-29T14:10:44;5.00;99.90
56542;DHT22;42438;53.174;6.730;2023-01-29T14:18:28;4.40;99.90
56542;DHT22;42438;53.174;6.730;2023-01-29T14:23:43;5.00;99.90
56542;DHT22;42438;53.174;6.730;2023-01-29T14:29:21;4.60;99.90
56542;DHT22;42438;53.174;6.730;2023-01-29T14:31:58;4.40;99.90
56542;DHT22;42438;53.174;6.730;2023-01-29T14:34:29;4.50;99.90
56542;DHT22;42438;53.174;6.730;2023-01-29T14:37:19;4.60;99.90
56542;DHT22;42438;53.174;6.730;2023-01-29T14:39:54;4.80;99.90
56542;DHT22;42438;53.174;6.730;2023-01-29T14:42:35;5.20;99.90
56542;DHT22;42438;53.174;6.730;2023-01-29T14:45:22;4.40;99.90
56542;DHT22;42438;53.174;6.730;2023-01-29T14:53:26;4.90;99.90
56542;DHT22;42438;53.174;6.730;2023-01-29T14:56:10;4.60;99.90
56542;DHT22;42438;53.174;6.730;2023-01-29T14:58:43;4.60;99.90
56542;DHT22;42438;53.174;6.730;2023-01-29T15:01:29;5.00;99.90
56542;DHT22;42438;53.174;6.730;2023-01-29T15:04:24;4.50;99.90
56542;DHT22;42438;53.174;6.730;2023-01-29T15:09:51;4.40;99.90
56542;DHT22;42438;53.174;6.730;2023-01-29T15:15:35;4.50;99.90
56542;DHT22;42438;53.174;6.730;2023-01-29T15:20:43;4.70;99.90
56542;DHT22;42438;53.174;6.730;2023-01-29T15:23:31;4.30;99.90
56542;DHT22;42438;53.174;6.730;2023-01-29T15:26:05;4.10;99.90
56542;DHT22;42438;53.174;6.730;2023-01-29T15:28:37;4.50;99.90
56542;DHT22;42438;53.174;6.730;2023-01-29T15:31:13;4.60;99.90
56542;DHT22;42438;53.174;6.730;2023-01-29T15:33:49;4.30;99.90
56542;DHT22;42438;53.174;6.730;2023-01-29T15:36:25;4.80;99.90
56542;DHT22;42438;53.174;6.730;2023-01-29T15:41:49;4.60;99.90
56542;DHT22;42438;53.174;6.730;2023-01-29T15:44:22;4.40;99.90
56542;DHT22;42438;53.174;6.730;2023-01-29T15:46:55;4.60;99.90
56542;DHT22;42438;53.174;6.730;2023-01-29T15:49:36;4.60;99.90
56542;DHT22;42438;53.174;6.730;2023-01-29T15:54:49;4.60;99.90
56542;DHT22;42438;53.174;6.730;2023-01-29T15:57:35;4.30;99.90
56542;DHT22;42438;53.174;6.730;2023-01-29T16:00:16;4.40;99.90
56542;DHT22;42438;53.174;6.730;2023-01-29T16:02:48;4.00;99.90
56542;DHT22;42438;53.174;6.730;2023-01-29T16:05:27;4.60;99.90
56542;DHT22;42438;53.174;6.730;2023-01-29T16:07:59;4.60;99.90
56542;DHT22;42438;53.174;6.730;2023-01-29T16:10:30;4.80;99.90
56542;DHT22;42438;53.174;6.730;2023-01-29T16:13:02;4.80;99.90
56542;DHT22;42438;53.174;6.730;2023-01-29T16:15:35;4.80;99.90
56542;DHT22;42438;53.174;6.730;2023-01-29T16:18:32;4.70;99.90
56542;DHT22;42438;53.174;6.730;2023-01-29T16:21:10;4.50;99.90
56542;DHT22;42438;53.174;6.730;2023-01-29T16:24:10;4.60;99.90
56542;DHT22;42438;53.174;6.730;2023-01-29T16:26:45;4.60;99.90
56542;DHT22;42438;53.174;6.730;2023-01-29T16:29:22;4.70;99.90
56542;DHT22;42438;53.174;6.730;2023-01-29T16:31:54;4.70;99.90
56542;DHT22;42438;53.174;6.730;2023-01-29T16:34:32;4.80;99.90
56542;DHT22;42438;53.174;6.730;2023-01-29T16:37:17;4.60;99.90
56542;DHT22;42438;53.174;6.730;2023-01-29T16:39:50;4.30;99.90
56542;DHT22;42438;53.174;6.730;2023-01-29T16:42:31;4.20;99.90
56542;DHT22;42438;53.174;6.730;2023-01-29T16:45:04;4.60;99.90
56542;DHT22;42438;53.174;6.730;2023-01-29T16:47:37;4.20;99.90
56542;DHT22;42438;53.174;6.730;2023-01-29T16:50:33;4.70;99.90
56542;DHT22;42438;53.174;6.730;2023-01-29T16:53:16;4.60;99.90
56542;DHT22;42438;53.174;6.730;2023-01-29T16:55:49;5.00;99.90
56542;DHT22;42438;53.174;6.730;2023-01-29T16:58:24;4.70;99.90
56542;DHT22;42438;53.174;6.730;2023-01-29T17:00:58;4.70;99.90
56542;DHT22;42438;53.174;6.730;2023-01-29T17:03:32;4.70;99.90
56542;DHT22;42438;53.174;6.730;2023-01-29T17:06:09;4.70;99.90
56542;DHT22;42438;53.174;6.730;2023-01-29T17:08:41;4.50;99.90
56542;DHT22;42438;53.174;6.730;2023-01-29T17:11:27;4.80;99.90
56542;DHT22;42438;53.174;6.730;2023-01-29T17:13:59;4.70;99.90
56542;DHT22;42438;53.174;6.730;2023-01-29T17:16:32;5.00;99.90
56542;DHT22;42438;53.174;6.730;2023-01-29T17:19:10;4.90;99.90
56542;DHT22;42438;53.174;6.730;2023-01-29T17:21:44;4.50;99.90
56542;DHT22;42438;53.174;6.730;2023-01-29T17:24:15;4.40;99.90
56542;DHT22;42438;53.174;6.730;2023-01-29T17:26:45;4.70;99.90
56542;DHT22;42438;53.174;6.730;2023-01-29T17:29:23;4.80;99.90
56542;DHT22;42438;53.174;6.730;2023-01-29T17:31:56;4.70;99.90
56542;DHT22;42438;53.174;6.730;2023-01-29T17:34:29;4.60;99.90
56542;DHT22;42438;53.174;6.730;2023-01-29T17:36:59;5.00;99.90
56542;DHT22;42438;53.174;6.730;2023-01-29T17:39:31;4.40;99.90
56542;DHT22;42438;53.174;6.730;2023-01-29T17:42:01;4.70;99.90
56542;DHT22;42438;53.174;6.730;2023-01-29T17:44:32;4.40;99.90
56542;DHT22;42438;53.174;6.730;2023-01-29T17:47:03;4.70;99.90
56542;DHT22;42438;53.174;6.730;2023-01-29T17:49:34;4.50;99.90
56542;DHT22;42438;53.174;6.730;2023-01-29T17:52:07;4.40;99.90
56542;DHT22;42438;53.174;6.730;2023-01-29T17:54:37;4.30;99.90
56542;DHT22;42438;53.174;6.730;2023-01-29T17:57:10;4.50;99.90
56542;DHT22;42438;53.174;6.730;2023-01-29T17:59:43;4.60;99.90
56542;DHT22;42438;53.174;6.730;2023-01-29T18:02:14;4.50;99.90
56542;DHT22;42438;53.174;6.730;2023-01-29T18:04:46;4.60;99.90
56542;DHT22;42438;53.174;6.730;2023-01-29T18:07:20;4.20;99.90
56542;DHT22;42438;53.174;6.730;2023-01-29T18:09:50;4.80;99.90
56542;DHT22;42438;53.174;6.730;2023-01-29T18:12:21;4.70;99.90
56542;DHT22;42438;53.174;6.730;2023-01-29T18:14:52;4.70;99.90
56542;DHT22;42438;53.174;6.730;2023-01-29T18:17:22;4.60;99.90
56542;DHT22;42438;53.174;6.730;2023-01-29T18:19:53;4.90;99.90
56542;DHT22;42438;53.174;6.730;2023-01-29T18:22:25;4.90;99.90
56542;DHT22;42438;53.174;6.730;2023-01-29T18:24:56;4.70;99.90
56542;DHT22;42438;53.174;6.730;2023-01-29T18:27:27;4.80;99.90
56542;DHT22;42438;53.174;6.730;2023-01-29T18:29:57;4.80;99.90
56542;DHT22;42438;53.174;6.730;2023-01-29T18:32:28;4.50;99.90
56542;DHT22;42438;53.174;6.730;2023-01-29T18:34:59;5.00;99.90
56542;DHT22;42438;53.174;6.730;2023-01-29T18:37:29;5.00;99.90
56542;DHT22;42438;53.174;6.730;2023-01-29T18:40:00;5.00;99.90
56542;DHT22;42438;53.174;6.730;2023-01-29T18:42:32;4.60;99.90
56542;DHT22;42438;53.174;6.730;2023-01-29T18:45:03;4.60;99.90
56542;DHT22;42438;53.174;6.730;2023-01-29T18:47:34;4.50;99.90
56542;DHT22;42438;53.174;6.730;2023-01-29T18:50:05;4.80;99.90
56542;DHT22;42438;53.174;6.730;2023-01-29T18:52:36;4.70;99.90
56542;DHT22;42438;53.174;6.730;2023-01-29T18:55:07;4.90;99.90
56542;DHT22;42438;53.174;6.730;2023-01-29T18:57:39;4.70;99.90
56542;DHT22;42438;53.174;6.730;2023-01-29T19:00:10;5.10;99.90
56542;DHT22;42438;53.174;6.730;2023-01-29T19:02:43;4.30;99.90
56542;DHT22;42438;53.174;6.730;2023-01-29T19:05:14;4.70;99.90
56542;DHT22;42438;53.174;6.730;2023-01-29T19:07:46;4.60;99.90